createdAt,value
2022-08-14T00:02:31.449Z,7.15
2022-08-14T00:07:35.587Z,7.93
2022-08-14T00:12:56.418Z,11.02
2022-08-14T00:17:59.448Z,9.43
2022-08-14T00:23:11.946Z,9.95
2022-08-14T00:28:17.882Z,9.45
2022-08-14T00:33:20.586Z,8.88
2022-08-14T00:38:42.763Z,9.93
2022-08-14T00:43:46.467Z,4.65
2022-08-14T00:48:49.323Z,7.07
2022-08-14T00:53:51.559Z,6.45
2022-08-14T00:58:56.088Z,9.60
2022-08-14T01:04:01.610Z,11.27
2022-08-14T01:09:08.853Z,3.03
2022-08-14T01:14:25.684Z,9.30
2022-08-14T01:19:49.570Z,4.85
2022-08-14T01:24:51.864Z,10.35
2022-08-14T01:30:03.453Z,6.32
2022-08-14T01:35:18.393Z,3.90
2022-08-14T01:40:36.985Z,6.00
2022-08-14T01:45:49.154Z,7.15
2022-08-14T01:51:03.754Z,4.38
2022-08-14T01:56:12.167Z,3.95
2022-08-14T02:01:20.894Z,5.00
2022-08-14T02:06:33.315Z,2.33
2022-08-14T02:11:37.243Z,6.15
2022-08-14T02:16:42.832Z,5.53
2022-08-14T02:21:50.551Z,4.80
2022-08-14T02:26:58.310Z,4.13
2022-08-14T02:32:19.991Z,3.63
2022-08-14T02:37:46.983Z,5.18
2022-08-14T02:42:55.338Z,5.93
2022-08-14T02:48:10.471Z,2.95
2022-08-14T02:53:31.392Z,3.00
2022-08-14T02:58:42.385Z,2.55
2022-08-14T03:08:48.558Z,3.05
2022-08-14T03:13:52.665Z,3.05
2022-08-14T03:19:01.070Z,2.00
2022-08-14T03:24:04.886Z,3.80
2022-08-14T03:29:13.912Z,3.05
2022-08-14T03:34:24.825Z,2.88
2022-08-14T03:39:38.485Z,6.22
2022-08-14T03:45:19.913Z,6.18
2022-08-14T03:50:10.900Z,4.30
2022-08-14T03:55:14.119Z,4.60
2022-08-14T04:00:42.701Z,6.32
2022-08-14T04:05:43.227Z,8.63
2022-08-14T04:10:51.042Z,6.55
2022-08-14T04:16:01.259Z,13.30
2022-08-14T04:21:04.411Z,9.13
2022-08-14T04:26:14.517Z,7.97
2022-08-14T04:36:56.773Z,12.40
2022-08-14T04:42:17.592Z,9.07
2022-08-14T04:47:38.773Z,11.75
2022-08-14T04:52:53.939Z,16.38
2022-08-14T04:57:59.361Z,12.05
2022-08-14T05:03:03.526Z,16.48
2022-08-14T05:08:32.304Z,9.32
2022-08-14T05:13:53.297Z,9.95
2022-08-14T05:19:24.535Z,12.13
2022-08-14T05:24:21.873Z,9.82
2022-08-14T05:29:24.131Z,10.45
2022-08-14T05:34:31.820Z,5.95
2022-08-14T05:39:34.730Z,18.27
2022-08-14T05:44:37.064Z,9.55
2022-08-14T05:49:39.786Z,8.82
2022-08-14T05:54:42.477Z,5.43
2022-08-14T05:59:46.614Z,5.50
2022-08-14T06:04:49.449Z,7.80
2022-08-14T06:09:52.495Z,7.43
2022-08-14T06:14:54.882Z,10.85
2022-08-14T06:19:57.148Z,7.32
2022-08-14T06:24:59.548Z,9.68
2022-08-14T06:30:04.037Z,9.48
2022-08-14T06:35:13.123Z,8.65
2022-08-14T06:40:27.172Z,8.43
2022-08-14T06:45:31.757Z,6.28
2022-08-14T06:50:34.018Z,7.68
2022-08-14T06:55:37.025Z,9.95
2022-08-14T07:01:06.183Z,6.85
2022-08-14T07:06:11.734Z,9.90
2022-08-14T07:11:23.727Z,12.73
2022-08-14T07:16:29.245Z,9.23
2022-08-14T07:21:32.617Z,11.45
2022-08-14T07:26:36.576Z,12.27
2022-08-14T07:31:41.109Z,15.15
2022-08-14T07:36:58.017Z,17.65
2022-08-14T07:42:02.805Z,16.95
2022-08-14T07:47:05.474Z,18.77
2022-08-14T07:52:08.153Z,17.83
2022-08-14T07:57:12.613Z,23.77
2022-08-14T08:02:19.674Z,20.33
2022-08-14T08:07:30.023Z,23.63
2022-08-14T08:12:34.518Z,30.02
2022-08-14T08:17:38.581Z,26.58
2022-08-14T08:22:48.245Z,33.37
2022-08-14T08:28:08.246Z,30.45
2022-08-14T08:33:11.114Z,35.50
2022-08-14T08:39:15.128Z,35.50
2022-08-14T08:43:46.207Z,33.35
2022-08-14T08:48:54.106Z,26.42
2022-08-14T08:54:04.267Z,21.80
2022-08-14T08:59:21.014Z,21.50
2022-08-14T09:04:24.797Z,20.95
2022-08-14T09:09:30.631Z,17.45
2022-08-14T09:14:36.503Z,15.00
2022-08-14T09:19:42.540Z,18.05
2022-08-14T09:24:47.607Z,13.43
2022-08-14T09:29:54.081Z,13.75
2022-08-14T09:35:24.275Z,8.02
2022-08-14T09:40:56.280Z,13.40
2022-08-14T09:46:02.710Z,9.52
2022-08-14T09:56:12.469Z,6.78
2022-08-14T10:01:36.647Z,7.05
2022-08-14T10:06:45.345Z,6.93
2022-08-14T10:11:59.691Z,8.85
2022-08-14T10:17:02.628Z,9.15
2022-08-14T10:23:15.110Z,6.55
2022-08-14T10:27:34.062Z,8.35
2022-08-14T10:32:51.697Z,8.77
2022-08-14T10:37:54.487Z,5.88
2022-08-14T10:42:58.814Z,6.60
2022-08-14T10:48:24.308Z,6.82
2022-08-14T10:53:39.783Z,5.28
2022-08-14T10:58:42.563Z,6.68
2022-08-14T11:03:56.351Z,4.55
2022-08-14T11:08:59.333Z,3.63
2022-08-14T11:14:09.580Z,4.05
2022-08-14T11:19:13.591Z,7.90
2022-08-14T11:24:54.803Z,12.07
2022-08-14T11:29:43.389Z,7.65
2022-08-14T11:34:46.459Z,7.45
2022-08-14T11:39:48.846Z,9.18
2022-08-14T11:45:00.231Z,11.00
2022-08-14T11:50:15.286Z,9.75
2022-08-14T11:55:39.668Z,9.30
2022-08-14T12:00:54.465Z,7.15
2022-08-14T12:06:05.545Z,8.15
2022-08-14T12:11:10.334Z,11.73
2022-08-14T12:16:20.757Z,8.55
2022-08-14T12:21:29.532Z,9.55
2022-08-14T12:26:40.635Z,11.52
2022-08-14T12:31:47.382Z,12.57
2022-08-14T12:37:12.147Z,9.57
2022-08-14T12:42:34.111Z,10.38
2022-08-14T12:47:37.691Z,10.25
2022-08-14T12:52:56.123Z,5.85
2022-08-14T12:58:14.012Z,5.88
2022-08-14T13:03:29.796Z,8.90
2022-08-14T13:08:34.397Z,6.88
2022-08-14T13:13:37.891Z,8.85
2022-08-14T13:18:47.288Z,7.80
2022-08-14T13:24:00.428Z,9.52
2022-08-14T13:29:06.438Z,9.13
2022-08-14T13:34:13.372Z,9.30
2022-08-14T13:39:20.546Z,7.97
2022-08-14T13:44:27.194Z,8.63
2022-08-14T13:49:29.852Z,6.78
2022-08-14T13:54:36.400Z,6.80
2022-08-14T13:59:45.731Z,7.35
2022-08-14T14:04:49.467Z,12.43
2022-08-14T14:09:55.305Z,3.72
2022-08-14T14:15:01.736Z,4.88
2022-08-14T14:20:34.690Z,6.95
2022-08-14T14:25:41.201Z,9.00
2022-08-14T14:30:53.189Z,6.07
2022-08-14T14:35:57.022Z,5.55
2022-08-14T14:41:03.666Z,3.35
2022-08-14T14:46:09.750Z,5.82
2022-08-14T14:51:17.011Z,4.82
2022-08-14T14:56:50.458Z,4.90
2022-08-14T15:01:47.821Z,4.07
2022-08-14T15:06:50.178Z,3.78
2022-08-14T15:11:55.503Z,5.10
2022-08-14T15:16:59.067Z,3.30
2022-08-14T15:22:03.354Z,4.85
2022-08-14T15:27:06.890Z,5.28
2022-08-14T15:32:10.978Z,2.75
2022-08-14T15:37:16.745Z,4.22
2022-08-14T15:42:20.120Z,3.97
2022-08-14T15:47:28.216Z,2.63
2022-08-14T15:52:35.455Z,2.80
2022-08-14T15:58:01.576Z,7.35
2022-08-14T16:03:03.519Z,2.42
2022-08-14T16:08:27.051Z,2.58
2022-08-14T16:13:42.186Z,2.50
2022-08-14T16:18:45.611Z,2.08
2022-08-14T16:23:48.551Z,2.28
2022-08-14T16:29:04.503Z,5.97
2022-08-14T16:34:45.919Z,4.80
2022-08-14T16:39:29.438Z,5.03
2022-08-14T16:44:40.884Z,4.00
2022-08-14T16:50:03.177Z,5.47
2022-08-14T16:55:09.066Z,2.75
2022-08-14T17:00:44.021Z,4.45
2022-08-14T17:05:48.137Z,4.53
2022-08-14T17:10:50.339Z,2.58
2022-08-14T17:16:23.949Z,4.03
2022-08-14T17:21:31.899Z,8.27
2022-08-14T17:26:44.781Z,2.00
2022-08-14T17:31:58.616Z,2.00
2022-08-14T17:37:02.673Z,2.13
2022-08-14T17:42:08.057Z,3.00
2022-08-14T17:47:18.059Z,1.90
2022-08-14T17:52:35.823Z,2.10
2022-08-14T17:57:43.158Z,4.50
2022-08-14T18:02:50.414Z,5.43
2022-08-14T18:08:31.295Z,6.80
2022-08-14T18:13:16.496Z,3.03
2022-08-14T18:18:18.980Z,1.90
2022-08-14T18:23:21.800Z,4.70
2022-08-14T18:28:51.176Z,2.45
2022-08-14T18:34:11.825Z,3.75
2022-08-14T18:39:23.242Z,5.20
2022-08-14T18:44:50.669Z,3.83
2022-08-14T18:50:00.666Z,5.20
2022-08-14T18:55:21.510Z,8.68
2022-08-14T19:00:32.958Z,8.15
2022-08-14T19:05:47.621Z,11.18
2022-08-14T19:10:52.501Z,6.20
2022-08-14T19:16:13.834Z,12.95
2022-08-14T19:21:46.486Z,10.38
2022-08-14T19:26:54.676Z,10.02
2022-08-14T19:31:59.559Z,10.73
2022-08-14T19:37:06.092Z,14.18
2022-08-14T19:42:10.449Z,11.95
2022-08-14T19:47:15.482Z,16.92
2022-08-14T19:52:35.222Z,16.92
2022-08-14T19:57:39.512Z,9.55
2022-08-14T20:02:51.078Z,6.82
2022-08-14T20:08:06.417Z,12.00
2022-08-14T20:13:32.200Z,16.95
2022-08-14T20:18:49.674Z,18.23
2022-08-14T20:24:31.045Z,12.38
2022-08-14T20:29:38.982Z,19.40
2022-08-14T20:39:55.854Z,17.65
2022-08-14T20:45:18.776Z,19.48
2022-08-14T20:50:28.693Z,28.40
2022-08-14T20:55:37.371Z,25.70
2022-08-14T21:00:52.242Z,21.45
2022-08-14T21:05:58.130Z,16.60
2022-08-14T21:11:01.256Z,14.50
2022-08-14T21:16:33.662Z,27.10
2022-08-14T21:21:41.379Z,25.50
2022-08-14T21:26:52.644Z,17.50
2022-08-14T21:32:20.842Z,28.95
2022-08-14T21:37:23.699Z,22.50
2022-08-14T21:42:27.955Z,19.10
2022-08-14T21:47:30.338Z,14.30
2022-08-14T21:52:49.151Z,16.27
2022-08-14T21:58:04.089Z,25.77
2022-08-14T22:03:24.313Z,21.35
2022-08-14T22:08:27.307Z,20.23
2022-08-14T22:13:32.467Z,22.05
2022-08-14T22:18:34.914Z,25.73
2022-08-14T22:23:38.878Z,28.25
2022-08-14T22:28:44.987Z,29.23
2022-08-14T22:33:50.006Z,26.33
2022-08-14T22:39:00.350Z,25.23
2022-08-14T22:44:15.053Z,32.83
2022-08-14T22:50:29.163Z,34.17
2022-08-14T22:54:52.520Z,28.95
2022-08-14T22:59:55.878Z,26.98
2022-08-14T23:05:03.756Z,31.17
2022-08-14T23:10:31.675Z,30.52
2022-08-14T23:15:30.066Z,31.10
2022-08-14T23:20:33.937Z,33.60
2022-08-14T23:25:59.428Z,44.53
2022-08-14T23:31:05.871Z,33.72
2022-08-14T23:36:32.082Z,29.50
2022-08-14T23:41:46.188Z,30.33
2022-08-14T23:46:56.962Z,25.27
2022-08-14T23:53:06.038Z,27.63
2022-08-14T23:57:25.122Z,29.83
